Time;durP1;ratioP1;P1;durP2;ratioP2;P2;SDS_P1;SDS_P2;PMS_P1;PMS_P2;Temp;Humidity;BMP_temperature;BMP_pressure;BME280_temperature;BME280_humidity;BME280_pressure;Samples;Min_cycle;Max_cycle;Signal;HPM_P1;HPM_P2
2022/10/25 00:01:50;;;;;;;4.53;1.17;;;15.50;99.90;;;;;;5030869;28;20177;-73
2022/10/25 00:04:18;;;;;;;2.85;1.30;;;15.50;99.90;;;;;;5034092;28;20191;-74
2022/10/25 00:06:43;;;;;;;2.70;1.10;;;15.50;99.90;;;;;;5018625;28;20203;-74
2022/10/25 00:09:11;;;;;;;3.53;0.95;;;15.50;99.90;;;;;;5034895;28;20197;-73
2022/10/25 00:11:39;;;;;;;3.35;1.00;;;15.50;99.90;;;;;;5036867;28;20231;-74
2022/10/25 00:14:08;;;;;;;4.55;1.27;;;15.50;99.90;;;;;;5037100;28;20206;-74
2022/10/25 00:16:36;;;;;;;2.95;1.00;;;15.50;99.90;;;;;;5036729;28;20202;-74
2022/10/25 00:19:05;;;;;;;4.13;1.05;;;15.60;99.90;;;;;;5036578;28;20189;-73
2022/10/25 00:21:38;;;;;;;2.88;1.10;;;15.60;99.90;;;;;;5034633;28;20202;-73
2022/10/25 00:24:04;;;;;;;2.22;0.95;;;15.60;99.90;;;;;;5027727;28;20167;-73
2022/10/25 00:26:31;;;;;;;3.90;1.10;;;15.60;99.90;;;;;;5029914;28;20200;-73
2022/10/25 00:28:57;;;;;;;3.92;1.08;;;15.60;99.90;;;;;;5046721;28;20202;-73
2022/10/25 00:31:23;;;;;;;2.22;0.90;;;15.60;99.90;;;;;;5027284;28;20182;-73
2022/10/25 00:33:49;;;;;;;4.97;1.15;;;15.60;99.90;;;;;;5035194;28;20178;-73
2022/10/25 00:36:20;;;;;;;3.63;1.20;;;15.60;99.90;;;;;;5035845;28;20190;-73
2022/10/25 00:38:49;;;;;;;2.70;0.93;;;15.60;99.90;;;;;;5036719;28;20174;-73
2022/10/25 00:41:25;;;;;;;2.65;0.80;;;15.60;99.90;;;;;;5036484;28;20170;-74
2022/10/25 00:43:53;;;;;;;2.33;0.80;;;15.60;99.90;;;;;;5030277;28;20989;-73
2022/10/25 00:46:19;;;;;;;1.92;0.82;;;15.60;99.90;;;;;;5016828;28;20178;-74
2022/10/25 00:49:09;;;;;;;2.75;0.70;;;15.60;99.90;;;;;;5016993;28;20296;-74
2022/10/25 00:51:56;;;;;;;3.03;0.93;;;15.60;99.90;;;;;;5017278;28;20206;-73
2022/10/25 00:54:35;;;;;;;4.30;1.02;;;15.50;99.90;;;;;;5034954;28;20204;-74
2022/10/25 00:57:08;;;;;;;3.58;0.82;;;15.50;99.90;;;;;;5036072;28;20181;-73
2022/10/25 00:59:35;;;;;;;2.67;1.00;;;15.50;99.90;;;;;;5036199;28;20197;-70
2022/10/25 01:02:01;;;;;;;1.52;0.65;;;15.40;99.90;;;;;;5035797;28;20170;-71
2022/10/25 01:04:30;;;;;;;1.67;0.77;;;15.40;99.90;;;;;;5043896;28;20193;-73
2022/10/25 01:06:56;;;;;;;1.92;0.80;;;15.40;99.90;;;;;;5035549;28;20203;-74
2022/10/25 01:09:29;;;;;;;1.98;0.93;;;15.40;99.90;;;;;;5035628;28;20185;-73
2022/10/25 01:11:54;;;;;;;5.22;1.10;;;15.30;99.90;;;;;;5035486;28;20185;-73
2022/10/25 01:14:20;;;;;;;3.63;0.90;;;15.30;99.90;;;;;;5035591;28;20288;-74
2022/10/25 01:16:51;;;;;;;2.20;0.85;;;15.30;99.90;;;;;;5035311;28;20198;-76
2022/10/25 01:19:39;;;;;;;3.35;1.02;;;15.30;99.90;;;;;;5033285;28;20174;-76
2022/10/25 01:22:10;;;;;;;1.17;0.68;;;15.30;99.90;;;;;;5035297;28;20263;-75
2022/10/25 01:25:00;;;;;;;4.20;1.00;;;15.20;99.90;;;;;;5035607;28;20264;-76
2022/10/25 01:27:44;;;;;;;2.95;1.00;;;15.20;99.90;;;;;;5040964;28;20185;-75
2022/10/25 01:30:20;;;;;;;2.25;1.00;;;15.10;99.90;;;;;;5044758;28;20231;-75
2022/10/25 01:32:56;;;;;;;2.72;0.85;;;15.10;99.90;;;;;;5046732;28;20185;-75
2022/10/25 01:35:54;;;;;;;2.72;0.90;;;15.00;99.90;;;;;;5040150;28;20186;-75
2022/10/25 01:38:38;;;;;;;1.67;0.80;;;15.00;99.90;;;;;;5045300;28;20179;-75
2022/10/25 01:41:35;;;;;;;2.47;0.80;;;15.00;99.90;;;;;;5032744;28;20295;-76
2022/10/25 01:44:37;;;;;;;2.35;0.90;;;14.90;99.90;;;;;;5028327;28;20173;-76
2022/10/25 01:47:12;;;;;;;2.00;0.90;;;14.90;99.90;;;;;;5046752;28;20208;-76
2022/10/25 01:49:56;;;;;;;3.47;0.90;;;14.80;99.90;;;;;;5028602;28;20169;-75
2022/10/25 01:52:27;;;;;;;3.20;1.10;;;14.70;99.90;;;;;;5028740;28;20182;-76
2022/10/25 01:54:53;;;;;;;2.70;0.95;;;14.70;99.90;;;;;;5026773;28;20206;-76
2022/10/25 01:57:42;;;;;;;2.35;0.80;;;14.70;99.90;;;;;;5030151;28;20182;-76
2022/10/25 02:00:16;;;;;;;2.47;0.95;;;14.60;99.90;;;;;;5024112;28;20213;-76
2022/10/25 02:03:08;;;;;;;1.35;0.70;;;14.50;99.90;;;;;;5034247;28;20201;-75
2022/10/25 02:05:46;;;;;;;1.83;0.90;;;14.50;99.90;;;;;;5035318;28;20186;-77
2022/10/25 02:08:24;;;;;;;2.42;0.95;;;14.50;99.90;;;;;;5035204;28;20189;-76
2022/10/25 02:11:02;;;;;;;2.08;0.80;;;14.50;99.90;;;;;;5030220;28;20281;-76
2022/10/25 02:13:40;;;;;;;1.83;0.88;;;14.40;99.90;;;;;;5030099;28;20273;-77
2022/10/25 02:16:15;;;;;;;1.67;0.85;;;14.40;99.90;;;;;;5029475;28;20190;-75
2022/10/25 02:18:50;;;;;;;2.42;0.77;;;14.30;99.90;;;;;;5033513;28;20217;-76
2022/10/25 02:21:17;;;;;;;1.85;0.80;;;14.40;99.90;;;;;;5034516;28;20177;-76
2022/10/25 02:23:47;;;;;;;5.95;0.85;;;14.30;99.90;;;;;;5039094;28;20278;-76
2022/10/25 02:26:17;;;;;;;3.22;0.90;;;14.30;99.90;;;;;;5032775;28;20171;-76
2022/10/25 02:28:44;;;;;;;3.88;1.00;;;14.40;99.90;;;;;;5022104;28;20194;-76
2022/10/25 02:31:15;;;;;;;3.17;0.80;;;14.40;99.90;;;;;;5024988;28;20194;-75
2022/10/25 02:33:43;;;;;;;2.10;1.00;;;14.40;99.90;;;;;;5034890;28;20174;-76
2022/10/25 02:36:12;;;;;;;3.33;1.00;;;14.50;99.90;;;;;;5022670;28;20210;-76
2022/10/25 02:38:38;;;;;;;4.88;1.00;;;14.50;99.90;;;;;;5033843;28;20189;-75
2022/10/25 02:44:47;;;;;;;2.00;0.90;;;14.70;99.90;;;;;;5021639;28;20201;-75
2022/10/25 02:47:15;;;;;;;2.17;0.70;;;14.80;99.90;;;;;;5021587;28;20189;-76
2022/10/25 02:49:41;;;;;;;1.95;0.80;;;14.80;99.90;;;;;;5030789;28;20197;-76
2022/10/25 02:52:09;;;;;;;3.25;0.85;;;14.80;99.90;;;;;;5027178;28;20190;-76
2022/10/25 02:54:37;;;;;;;1.88;0.70;;;14.80;99.90;;;;;;5029264;28;20178;-76
2022/10/25 02:57:05;;;;;;;3.13;0.80;;;14.80;99.90;;;;;;5034313;28;20174;-76
2022/10/25 02:59:30;;;;;;;3.33;0.90;;;14.90;99.90;;;;;;5034265;28;20284;-76
2022/10/25 03:01:56;;;;;;;2.65;0.70;;;14.90;99.90;;;;;;5034275;28;20255;-76
2022/10/25 03:04:22;;;;;;;1.25;0.70;;;14.90;99.90;;;;;;5033610;28;20181;-75
2022/10/25 03:06:47;;;;;;;2.17;0.98;;;15.00;99.90;;;;;;5033708;28;20196;-74
2022/10/25 03:09:13;;;;;;;2.55;0.88;;;15.00;99.90;;;;;;5048309;28;20204;-74
2022/10/25 03:11:38;;;;;;;2.78;0.90;;;15.00;99.90;;;;;;5020265;28;20173;-75
2022/10/25 03:14:04;;;;;;;4.63;1.10;;;15.00;99.90;;;;;;5033580;28;20189;-74
2022/10/25 03:16:30;;;;;;;4.60;0.95;;;15.10;99.90;;;;;;5024565;28;20301;-74
2022/10/25 03:18:57;;;;;;;3.33;0.73;;;15.10;99.90;;;;;;5014729;28;20206;-74
2022/10/25 03:21:24;;;;;;;6.00;3.60;;;15.10;99.90;;;;;;5024425;28;20192;-73
2022/10/25 03:23:52;;;;;;;5.07;1.98;;;15.10;99.90;;;;;;5047921;28;20174;-74
2022/10/25 03:26:18;;;;;;;3.08;1.30;;;15.10;99.90;;;;;;5047168;28;20213;-75
2022/10/25 03:28:44;;;;;;;3.20;1.15;;;15.10;99.90;;;;;;5030809;28;20236;-74
2022/10/25 03:31:12;;;;;;;2.75;1.05;;;15.10;99.90;;;;;;5033451;28;20202;-75
2022/10/25 03:33:37;;;;;;;1.70;0.82;;;15.10;99.90;;;;;;5050473;28;20236;-74
2022/10/25 03:36:04;;;;;;;3.47;1.00;;;15.20;99.90;;;;;;5034611;28;20194;-74
2022/10/25 03:38:29;;;;;;;3.38;1.25;;;15.20;99.90;;;;;;5033716;28;20189;-75
2022/10/25 03:40:57;;;;;;;2.45;1.10;;;15.20;99.90;;;;;;5042040;28;20174;-75
2022/10/25 03:43:25;;;;;;;4.38;1.27;;;15.20;99.90;;;;;;5033555;28;20184;-75
2022/10/25 03:45:51;;;;;;;2.08;1.08;;;15.30;99.90;;;;;;5033598;28;20170;-75
2022/10/25 03:48:17;;;;;;;2.88;0.93;;;15.30;99.90;;;;;;5033217;28;20217;-75
2022/10/25 03:50:45;;;;;;;3.92;1.42;;;15.40;99.90;;;;;;5033700;28;20201;-75
2022/10/25 03:53:13;;;;;;;3.25;1.20;;;15.30;99.90;;;;;;5041751;28;20200;-75
2022/10/25 03:55:38;;;;;;;3.22;1.30;;;15.40;99.90;;;;;;5036900;28;20206;-75
2022/10/25 03:58:04;;;;;;;3.47;0.90;;;15.30;99.90;;;;;;5031024;28;20170;-75
2022/10/25 04:00:32;;;;;;;3.17;0.75;;;15.40;99.90;;;;;;5033571;28;20182;-76
2022/10/25 04:02:59;;;;;;;1.75;1.02;;;15.30;99.90;;;;;;5041636;28;20195;-75
2022/10/25 04:05:27;;;;;;;3.10;0.95;;;15.30;99.90;;;;;;5018551;28;20261;-75
2022/10/25 04:07:53;;;;;;;3.95;0.90;;;15.40;99.90;;;;;;5022245;28;20179;-74
2022/10/25 04:10:21;;;;;;;2.08;0.82;;;15.40;99.90;;;;;;5033485;28;20197;-75
2022/10/25 04:12:47;;;;;;;2.28;1.25;;;15.30;99.90;;;;;;5031480;28;20292;-75
2022/10/25 04:15:15;;;;;;;3.13;1.25;;;15.40;99.90;;;;;;5033316;28;20282;-75
2022/10/25 04:17:41;;;;;;;2.35;1.10;;;15.30;99.90;;;;;;5042146;28;20198;-75
2022/10/25 04:20:09;;;;;;;2.88;1.00;;;15.30;99.90;;;;;;5035996;28;20277;-74
2022/10/25 04:22:35;;;;;;;1.52;0.77;;;15.30;99.90;;;;;;5036905;28;20238;-75
2022/10/25 04:25:00;;;;;;;2.88;0.93;;;15.30;99.90;;;;;;5035568;28;20262;-75
2022/10/25 04:27:26;;;;;;;2.45;0.73;;;15.30;99.90;;;;;;5036374;28;20278;-75
2022/10/25 04:29:52;;;;;;;2.88;0.88;;;15.30;99.90;;;;;;5036885;28;20239;-76
2022/10/25 04:32:17;;;;;;;3.35;0.85;;;15.30;99.90;;;;;;5034971;28;20209;-75
2022/10/25 04:34:43;;;;;;;3.15;1.00;;;15.30;99.90;;;;;;5035774;28;20181;-74
2022/10/25 04:37:08;;;;;;;1.70;1.00;;;15.30;99.90;;;;;;5033295;28;20198;-74
2022/10/25 04:39:34;;;;;;;5.75;2.90;;;15.30;99.90;;;;;;5036604;28;20185;-76
2022/10/25 04:42:00;;;;;;;4.63;2.55;;;15.30;99.90;;;;;;5053080;28;20188;-76
2022/10/25 04:44:26;;;;;;;3.95;1.40;;;15.20;99.90;;;;;;5017055;28;20199;-75
2022/10/25 04:46:51;;;;;;;2.22;1.20;;;15.20;99.90;;;;;;5021939;28;20179;-75
2022/10/25 04:49:17;;;;;;;3.38;1.10;;;15.20;99.90;;;;;;5026369;28;20174;-76
2022/10/25 04:51:43;;;;;;;3.30;1.00;;;15.20;99.90;;;;;;5036516;28;20216;-76
2022/10/25 04:54:11;;;;;;;2.95;1.00;;;15.10;99.90;;;;;;5036077;28;20212;-76
2022/10/25 04:56:38;;;;;;;1.40;0.75;;;15.10;99.90;;;;;;5025895;28;20194;-75
2022/10/25 04:59:07;;;;;;;2.90;1.20;;;15.10;99.90;;;;;;5027324;28;20184;-74
2022/10/25 05:01:32;;;;;;;3.22;1.33;;;15.00;99.90;;;;;;5030545;28;20195;-75
2022/10/25 05:03:58;;;;;;;2.83;1.13;;;15.00;99.90;;;;;;5032732;28;20184;-75
2022/10/25 05:06:29;;;;;;;3.05;1.10;;;15.00;99.90;;;;;;5018203;28;20262;-76
2022/10/25 05:08:55;;;;;;;1.95;0.80;;;15.00;99.90;;;;;;5036688;28;20174;-74
2022/10/25 05:11:24;;;;;;;2.80;1.00;;;14.90;99.90;;;;;;5033263;28;20185;-74
2022/10/25 05:13:50;;;;;;;3.15;1.00;;;14.90;99.90;;;;;;5044464;28;20183;-76
2022/10/25 05:16:22;;;;;;;2.53;1.08;;;14.90;99.90;;;;;;5018013;28;20221;-73
2022/10/25 05:18:53;;;;;;;2.60;1.10;;;14.90;99.90;;;;;;5032858;28;20183;-75
2022/10/25 05:21:21;;;;;;;2.42;1.10;;;14.80;99.90;;;;;;5028946;28;20184;-74
2022/10/25 05:23:48;;;;;;;1.88;0.82;;;14.80;99.90;;;;;;5031291;28;20241;-75
2022/10/25 05:26:19;;;;;;;2.58;1.00;;;14.80;99.90;;;;;;5044336;28;20195;-75
2022/10/25 05:28:55;;;;;;;1.20;0.73;;;14.70;99.90;;;;;;5025103;28;20261;-76
2022/10/25 05:31:27;;;;;;;2.80;0.95;;;14.70;99.90;;;;;;5024323;28;20260;-77
2022/10/25 05:33:59;;;;;;;1.98;0.90;;;14.70;99.90;;;;;;5021708;28;20201;-76
2022/10/25 05:36:32;;;;;;;2.15;0.88;;;14.70;99.90;;;;;;5035810;28;20193;-75
2022/10/25 05:39:00;;;;;;;1.75;0.90;;;14.70;99.90;;;;;;5036261;28;20169;-76
2022/10/25 05:41:29;;;;;;;2.67;0.98;;;14.70;99.90;;;;;;5052755;28;20201;-77
2022/10/25 05:43:58;;;;;;;1.40;0.77;;;14.70;99.90;;;;;;5039149;28;20174;-76
2022/10/25 05:46:23;;;;;;;2.28;1.00;;;14.70;99.90;;;;;;5034689;28;20189;-77
2022/10/25 05:48:53;;;;;;;2.15;1.08;;;14.70;99.90;;;;;;5033574;28;20194;-75
2022/10/25 05:51:25;;;;;;;2.53;1.00;;;14.70;99.90;;;;;;5024188;28;20216;-76
2022/10/25 05:53:52;;;;;;;3.35;1.20;;;14.80;99.90;;;;;;5033987;28;20184;-75
2022/10/25 05:56:20;;;;;;;3.55;1.08;;;14.80;99.90;;;;;;5032989;28;20208;-76
2022/10/25 05:58:51;;;;;;;2.35;1.15;;;14.90;99.90;;;;;;5029663;28;20185;-77
2022/10/25 06:01:19;;;;;;;2.92;1.23;;;14.90;99.90;;;;;;5033415;28;20174;-75
2022/10/25 06:03:51;;;;;;;7.07;1.70;;;15.00;99.90;;;;;;5034734;28;20193;-75
2022/10/25 06:06:20;;;;;;;2.50;1.35;;;15.00;99.90;;;;;;5031737;28;20209;-76
2022/10/25 06:08:46;;;;;;;2.47;1.30;;;15.00;99.90;;;;;;5033720;28;20189;-76
2022/10/25 06:11:19;;;;;;;4.18;1.83;;;15.10;99.90;;;;;;5030710;28;20178;-76
2022/10/25 06:13:47;;;;;;;2.10;1.20;;;15.10;99.90;;;;;;5026924;28;20216;-74
2022/10/25 06:16:15;;;;;;;4.90;1.20;;;15.20;99.90;;;;;;5034781;28;20186;-76
2022/10/25 06:18:41;;;;;;;2.67;1.10;;;15.20;99.90;;;;;;5028755;28;20204;-76
2022/10/25 06:21:12;;;;;;;3.45;1.00;;;15.30;99.90;;;;;;5020486;28;20207;-76
2022/10/25 06:23:39;;;;;;;2.63;1.17;;;15.30;99.90;;;;;;5034406;28;20181;-76
2022/10/25 06:26:09;;;;;;;3.53;1.02;;;15.30;99.90;;;;;;5030260;28;20197;-75
2022/10/25 06:28:35;;;;;;;4.43;1.13;;;15.40;99.90;;;;;;5016139;28;20237;-75
2022/10/25 06:31:12;;;;;;;2.42;0.85;;;15.40;99.90;;;;;;5030236;28;20212;-76
2022/10/25 06:33:38;;;;;;;4.22;0.98;;;15.50;99.90;;;;;;5027219;28;20174;-76
2022/10/25 06:36:11;;;;;;;4.22;0.93;;;15.50;99.90;;;;;;5028503;28;20202;-76
2022/10/25 06:38:40;;;;;;;1.95;1.02;;;15.50;99.90;;;;;;5032843;28;20174;-76
2022/10/25 06:41:10;;;;;;;3.80;1.05;;;15.60;99.90;;;;;;5033969;28;20270;-76
2022/10/25 06:43:35;;;;;;;3.28;1.20;;;15.60;99.90;;;;;;5026444;28;20178;-75
2022/10/25 06:46:34;;;;;;;2.05;1.02;;;15.60;99.90;;;;;;5015025;28;20183;-75
2022/10/25 06:49:04;;;;;;;2.72;1.20;;;15.60;99.90;;;;;;5015076;28;20186;-75
2022/10/25 06:51:31;;;;;;;2.88;1.08;;;15.60;99.90;;;;;;5024826;28;20208;-76
2022/10/25 06:54:08;;;;;;;2.58;1.13;;;15.70;99.90;;;;;;5032970;28;20250;-75
2022/10/25 06:56:37;;;;;;;4.03;1.20;;;15.70;99.90;;;;;;5033586;28;20197;-73
2022/10/25 06:59:06;;;;;;;3.83;1.10;;;15.70;99.90;;;;;;5020760;28;20178;-78
2022/10/25 07:01:33;;;;;;;2.55;1.30;;;15.70;99.90;;;;;;5034944;28;20318;-77
2022/10/25 07:04:04;;;;;;;2.80;1.48;;;15.70;99.90;;;;;;5033957;28;20331;-76
2022/10/25 07:06:36;;;;;;;2.45;1.35;;;15.70;99.90;;;;;;5032149;28;20186;-73
2022/10/25 07:09:03;;;;;;;2.80;1.27;;;15.70;99.90;;;;;;5034924;28;20190;-72
2022/10/25 07:11:32;;;;;;;2.65;1.25;;;15.70;99.90;;;;;;5034351;28;20184;-73
2022/10/25 07:14:00;;;;;;;5.72;1.52;;;15.70;99.90;;;;;;5035148;28;20185;-79
2022/10/25 07:16:26;;;;;;;4.43;1.40;;;15.60;99.90;;;;;;5034830;28;20213;-81
2022/10/25 07:18:56;;;;;;;3.58;1.35;;;15.60;99.90;;;;;;5034746;28;20205;-78
2022/10/25 07:21:24;;;;;;;4.82;1.25;;;15.60;99.90;;;;;;5034301;28;20171;-78
2022/10/25 07:23:50;;;;;;;3.92;1.27;;;15.60;99.90;;;;;;5032580;28;20174;-80
2022/10/25 07:26:34;;;;;;;4.13;1.30;;;15.70;99.90;;;;;;5029974;28;20240;-79
2022/10/25 07:29:02;;;;;;;2.30;1.10;;;15.70;99.90;;;;;;5034120;28;20190;-79
2022/10/25 07:31:29;;;;;;;6.63;1.00;;;15.70;99.90;;;;;;5050803;28;20212;-79
2022/10/25 07:33:57;;;;;;;4.57;1.00;;;15.80;99.90;;;;;;5030930;28;20178;-79
2022/10/25 07:36:23;;;;;;;3.10;1.20;;;15.80;99.90;;;;;;5034172;28;20205;-78
2022/10/25 07:38:51;;;;;;;3.97;1.23;;;15.80;99.90;;;;;;5032022;28;20191;-80
2022/10/25 07:41:17;;;;;;;2.95;1.10;;;15.90;99.90;;;;;;5033966;28;20197;-80
2022/10/25 07:43:42;;;;;;;3.42;1.05;;;15.90;99.90;;;;;;5033685;28;20185;-79
2022/10/25 07:46:11;;;;;;;4.13;1.10;;;16.00;99.90;;;;;;5034058;28;20204;-79
2022/10/25 07:48:38;;;;;;;3.67;1.10;;;16.00;99.90;;;;;;5032731;28;20209;-80
2022/10/25 07:51:09;;;;;;;3.95;1.17;;;16.00;99.90;;;;;;5033982;28;20330;-81
2022/10/25 07:53:35;;;;;;;2.63;1.17;;;16.10;99.90;;;;;;5031709;28;20228;-80
2022/10/25 07:56:01;;;;;;;2.80;0.90;;;16.10;99.90;;;;;;5020856;28;20282;-80
2022/10/25 07:58:27;;;;;;;3.50;1.08;;;16.10;99.90;;;;;;5056370;28;20201;-80
2022/10/25 08:00:59;;;;;;;2.78;1.00;;;16.20;99.90;;;;;;5038488;28;20182;-78
2022/10/25 08:03:25;;;;;;;2.70;1.00;;;16.20;99.90;;;;;;5037729;28;20162;-77
2022/10/25 08:05:53;;;;;;;3.25;1.25;;;16.20;99.90;;;;;;5036023;28;20259;-81
2022/10/25 08:08:24;;;;;;;3.25;0.90;;;16.30;99.90;;;;;;5037401;28;20178;-78
2022/10/25 08:10:50;;;;;;;2.28;1.00;;;16.30;99.90;;;;;;5037313;28;20231;-80
2022/10/25 08:13:16;;;;;;;2.15;1.00;;;16.30;99.90;;;;;;5035214;28;20231;-80
2022/10/25 08:15:52;;;;;;;4.32;1.20;;;16.40;99.90;;;;;;5019091;28;20289;-78
2022/10/25 08:18:19;;;;;;;1.98;0.93;;;16.40;99.90;;;;;;5043046;28;20170;-79
2022/10/25 08:20:51;;;;;;;2.72;0.95;;;16.50;99.90;;;;;;5038279;28;20197;-80
2022/10/25 08:23:19;;;;;;;4.25;1.10;;;16.50;99.90;;;;;;5037405;28;20193;-79
2022/10/25 08:25:45;;;;;;;2.85;1.00;;;16.50;99.90;;;;;;5037978;28;20178;-81
2022/10/25 08:28:11;;;;;;;3.13;1.20;;;16.60;99.90;;;;;;5036755;28;20212;-78
2022/10/25 08:30:37;;;;;;;4.75;1.45;;;16.70;99.90;;;;;;5038162;28;20245;-76
2022/10/25 08:33:02;;;;;;;3.28;1.58;;;16.80;99.90;;;;;;5038406;28;20269;-78
2022/10/25 08:35:28;;;;;;;1.77;0.90;;;16.90;99.90;;;;;;5019047;28;20207;-80
2022/10/25 08:37:54;;;;;;;4.32;1.50;;;16.90;99.90;;;;;;5027964;28;20260;-77
2022/10/25 08:40:32;;;;;;;4.18;1.00;;;17.00;99.90;;;;;;5037244;28;20180;-81
2022/10/25 08:43:04;;;;;;;3.80;1.00;;;17.10;99.90;;;;;;5033178;28;20225;-75
2022/10/25 08:45:54;;;;;;;1.30;0.77;;;17.10;99.90;;;;;;5022714;28;20183;-80
2022/10/25 08:48:25;;;;;;;2.60;0.88;;;17.20;99.90;;;;;;5031841;28;20182;-79
2022/10/25 08:50:55;;;;;;;5.65;1.10;;;17.30;99.90;;;;;;5050898;28;20236;-80
2022/10/25 08:53:23;;;;;;;2.55;0.70;;;17.30;99.90;;;;;;5053214;28;20173;-79
2022/10/25 08:55:53;;;;;;;3.25;0.90;;;17.30;99.90;;;;;;5036889;28;20252;-77
2022/10/25 08:58:46;;;;;;;3.55;0.93;;;17.40;99.90;;;;;;5038327;28;20178;-79
2022/10/25 09:01:19;;;;;;;2.70;0.90;;;17.40;99.90;;;;;;5028911;28;20239;-79
2022/10/25 09:03:47;;;;;;;3.45;0.80;;;17.50;99.90;;;;;;5036713;28;20216;-77
2022/10/25 09:06:32;;;;;;;1.77;0.80;;;17.50;99.90;;;;;;5038096;28;20186;-79
2022/10/25 09:09:04;;;;;;;1.73;0.70;;;17.60;99.90;;;;;;5038241;28;20205;-76
2022/10/25 09:11:49;;;;;;;2.67;0.80;;;17.60;99.90;;;;;;5037929;28;20202;-76
2022/10/25 09:14:40;;;;;;;2.22;0.82;;;17.70;99.90;;;;;;5038654;28;20181;-78
2022/10/25 09:17:15;;;;;;;3.28;0.60;;;17.70;99.90;;;;;;5012717;28;20222;-77
2022/10/25 09:19:56;;;;;;;3.15;1.10;;;17.80;99.90;;;;;;5016954;28;20179;-78
2022/10/25 09:22:30;;;;;;;2.45;0.95;;;17.80;99.90;;;;;;5052270;28;20185;-78
2022/10/25 09:25:19;;;;;;;5.38;1.27;;;17.90;99.90;;;;;;5033439;28;20231;-74
2022/10/25 09:27:53;;;;;;;3.30;1.00;;;17.90;99.90;;;;;;5032370;28;20225;-73
2022/10/25 09:30:19;;;;;;;2.15;0.88;;;17.90;99.90;;;;;;5035767;28;20170;-73
2022/10/25 09:32:52;;;;;;;1.67;0.82;;;18.00;99.90;;;;;;5032499;28;20203;-73
2022/10/25 09:35:26;;;;;;;2.55;0.93;;;18.00;99.90;;;;;;5017272;28;20204;-74
2022/10/25 09:37:57;;;;;;;1.85;0.90;;;18.00;99.90;;;;;;5030467;28;20278;-72
2022/10/25 09:40:28;;;;;;;2.88;1.15;;;18.00;99.90;;;;;;5041970;28;20197;-74
2022/10/25 09:43:00;;;;;;;2.35;0.93;;;18.10;99.90;;;;;;5036932;28;20218;-75
2022/10/25 09:45:39;;;;;;;3.22;0.90;;;18.10;99.90;;;;;;5022309;28;20203;-74
2022/10/25 09:48:24;;;;;;;1.90;0.80;;;18.20;99.90;;;;;;5020386;28;20201;-74
2022/10/25 09:51:12;;;;;;;2.78;0.93;;;18.20;99.90;;;;;;5034816;28;20166;-75
2022/10/25 09:53:40;;;;;;;2.20;0.90;;;18.20;99.90;;;;;;5035642;28;20225;-73
2022/10/25 09:56:06;;;;;;;3.80;1.33;;;18.20;99.90;;;;;;5021412;28;20214;-74
2022/10/25 09:58:37;;;;;;;2.72;1.05;;;18.20;99.90;;;;;;5024139;28;20188;-73
2022/10/25 10:01:11;;;;;;;3.33;1.30;;;18.20;99.90;;;;;;5032011;28;20225;-75
2022/10/25 10:03:40;;;;;;;4.03;1.48;;;18.20;99.90;;;;;;5032458;28;20250;-74
2022/10/25 10:06:11;;;;;;;2.67;0.95;;;18.20;99.90;;;;;;5049765;28;20210;-74
2022/10/25 10:08:41;;;;;;;1.42;0.60;;;18.20;99.90;;;;;;5035329;28;20181;-72
2022/10/25 10:11:17;;;;;;;3.40;1.00;;;18.20;99.90;;;;;;5029670;28;20180;-74
2022/10/25 10:14:15;;;;;;;2.60;1.00;;;18.20;99.90;;;;;;5034811;28;20288;-74
2022/10/25 10:16:53;;;;;;;5.38;1.20;;;18.20;99.90;;;;;;5033968;28;20194;-73
2022/10/25 10:19:23;;;;;;;4.65;1.20;;;18.20;99.90;;;;;;4999077;28;20266;-73
2022/10/25 10:21:58;;;;;;;3.45;0.98;;;18.20;99.90;;;;;;5024444;28;20230;-73
2022/10/25 10:24:35;;;;;;;1.73;0.80;;;18.20;99.90;;;;;;5032932;28;20172;-73
2022/10/25 10:27:06;;;;;;;4.57;1.40;;;18.30;99.90;;;;;;5015065;28;20217;-73
2022/10/25 10:29:57;;;;;;;1.67;0.60;;;18.30;99.90;;;;;;5022800;28;20206;-73
2022/10/25 10:32:31;;;;;;;1.55;0.68;;;18.30;99.90;;;;;;5034683;28;20190;-74
2022/10/25 10:34:57;;;;;;;2.28;0.80;;;18.30;99.90;;;;;;5016100;28;20269;-73
2022/10/25 10:37:33;;;;;;;2.70;0.73;;;18.30;99.90;;;;;;5019189;28;20174;-74
2022/10/25 10:40:19;;;;;;;1.73;0.80;;;18.30;99.90;;;;;;5016126;28;20206;-75
2022/10/25 10:42:47;;;;;;;1.95;0.63;;;18.30;99.90;;;;;;5019512;28;20193;-73
2022/10/25 10:45:14;;;;;;;2.90;0.80;;;18.30;99.90;;;;;;5033920;28;20189;-72
2022/10/25 10:47:53;;;;;;;2.38;0.75;;;18.30;99.90;;;;;;5032710;28;20245;-74
2022/10/25 10:50:22;;;;;;;1.38;0.60;;;18.30;99.90;;;;;;5038879;28;20233;-75
2022/10/25 10:53:02;;;;;;;1.25;0.70;;;18.40;99.90;;;;;;5032039;28;20301;-73
2022/10/25 10:55:45;;;;;;;1.23;0.43;;;18.40;99.90;;;;;;5034276;28;20223;-74
2022/10/25 10:58:34;;;;;;;1.95;0.85;;;18.40;99.90;;;;;;5046768;28;20174;-77
2022/10/25 11:01:08;;;;;;;1.73;0.68;;;18.50;99.90;;;;;;5030951;28;20249;-77
2022/10/25 11:03:40;;;;;;;3.38;0.90;;;18.50;99.90;;;;;;5034380;28;20174;-77
2022/10/25 11:06:38;;;;;;;1.15;0.60;;;18.60;99.90;;;;;;5033574;28;20205;-78
2022/10/25 11:09:14;;;;;;;2.83;0.93;;;18.60;99.90;;;;;;5038087;28;20243;-79
2022/10/25 11:12:03;;;;;;;3.00;0.77;;;18.70;99.90;;;;;;5031685;28;20284;-78
2022/10/25 11:14:28;;;;;;;1.52;0.70;;;18.80;99.90;;;;;;5035251;28;20227;-76
2022/10/25 11:17:00;;;;;;;1.60;0.80;;;18.80;99.90;;;;;;5032207;28;20190;-76
2022/10/25 11:19:40;;;;;;;1.92;0.77;;;18.80;99.90;;;;;;5039758;28;20199;-73
2022/10/25 11:22:21;;;;;;;1.30;0.50;;;18.90;99.90;;;;;;5033504;28;20170;-77
2022/10/25 11:24:55;;;;;;;1.48;0.90;;;18.90;99.90;;;;;;5038394;28;20189;-76
2022/10/25 11:27:41;;;;;;;2.95;0.60;;;19.00;99.90;;;;;;5031962;28;20203;-75
2022/10/25 11:30:15;;;;;;;1.10;0.60;;;19.00;99.90;;;;;;5040335;28;20178;-70
2022/10/25 11:32:56;;;;;;;2.45;0.73;;;19.00;99.90;;;;;;5066738;28;20208;-74
2022/10/25 11:35:43;;;;;;;1.10;0.60;;;19.00;99.90;;;;;;5044148;28;20221;-75
2022/10/25 11:38:40;;;;;;;1.90;0.57;;;19.00;99.90;;;;;;5020433;28;20225;-75
2022/10/25 11:41:21;;;;;;;1.98;0.60;;;19.00;99.90;;;;;;5029906;28;20187;-76
2022/10/25 11:43:47;;;;;;;2.17;0.70;;;19.00;99.90;;;;;;5025604;28;20312;-75
2022/10/25 11:46:28;;;;;;;2.03;0.80;;;19.00;99.90;;;;;;5034976;28;20298;-77
2022/10/25 11:49:22;;;;;;;0.85;0.60;;;19.00;99.90;;;;;;5034332;28;20174;-74
2022/10/25 11:51:59;;;;;;;0.95;0.52;;;19.00;99.90;;;;;;5032017;28;20175;-75
2022/10/25 11:54:43;;;;;;;3.47;0.98;;;19.00;99.90;;;;;;5032303;28;20186;-75
2022/10/25 11:57:15;;;;;;;2.78;0.60;;;19.00;99.90;;;;;;5037675;28;20198;-76
2022/10/25 11:59:46;;;;;;;3.10;0.75;;;19.00;99.90;;;;;;5037819;28;20193;-74
2022/10/25 12:02:20;;;;;;;1.08;0.47;;;19.00;99.90;;;;;;5028704;28;20178;-75
2022/10/25 12:05:13;;;;;;;1.70;0.60;;;19.00;99.90;;;;;;5036759;28;20171;-75
2022/10/25 12:07:57;;;;;;;1.30;0.70;;;19.10;99.90;;;;;;5036918;28;20244;-76
2022/10/25 12:10:31;;;;;;;0.80;0.60;;;19.10;99.90;;;;;;5027905;28;20182;-72
2022/10/25 12:13:04;;;;;;;2.42;0.68;;;19.10;99.90;;;;;;5037117;28;20204;-71
2022/10/25 12:15:52;;;;;;;1.83;0.80;;;19.20;99.90;;;;;;5036254;28;20189;-72
2022/10/25 12:18:37;;;;;;;3.47;0.80;;;19.20;99.90;;;;;;5036768;28;20185;-72
2022/10/25 12:21:10;;;;;;;1.75;0.60;;;19.30;99.90;;;;;;5047302;28;20199;-71
2022/10/25 12:23:46;;;;;;;2.50;0.60;;;19.30;99.90;;;;;;5018500;28;20186;-73
2022/10/25 12:26:29;;;;;;;0.75;0.60;;;19.40;99.90;;;;;;5037472;28;20239;-72
2022/10/25 12:29:00;;;;;;;0.82;0.50;;;19.50;99.90;;;;;;5037168;28;20201;-73
2022/10/25 12:31:37;;;;;;;1.40;0.60;;;19.60;99.90;;;;;;5037407;28;20178;-72
2022/10/25 12:34:29;;;;;;;2.78;0.60;;;19.60;99.90;;;;;;5037139;28;20232;-72
2022/10/25 12:37:03;;;;;;;1.80;0.68;;;19.70;99.90;;;;;;5005683;28;20257;-73
2022/10/25 12:39:39;;;;;;;1.67;0.70;;;19.70;99.90;;;;;;5031540;28;20185;-72
2022/10/25 12:42:26;;;;;;;1.95;0.70;;;19.60;99.90;;;;;;5020325;28;20478;-71
2022/10/25 12:45:16;;;;;;;1.02;0.57;;;19.60;99.90;;;;;;5037116;28;20178;-72
2022/10/25 12:48:01;;;;;;;0.90;0.50;;;19.60;99.90;;;;;;5041062;28;20201;-72
2022/10/25 12:50:41;;;;;;;2.15;0.70;;;19.60;99.90;;;;;;5033710;28;20190;-73
2022/10/25 12:53:32;;;;;;;2.20;0.45;;;19.70;99.90;;;;;;5037139;28;20177;-73
2022/10/25 12:56:29;;;;;;;2.53;0.80;;;19.70;99.90;;;;;;5036991;28;20252;-73
2022/10/25 12:59:19;;;;;;;1.17;0.50;;;19.60;99.90;;;;;;5036631;28;20231;-73
2022/10/25 13:02:22;;;;;;;2.42;1.00;;;19.60;99.90;;;;;;5022893;28;20198;-72
2022/10/25 13:05:21;;;;;;;2.60;0.82;;;19.60;99.90;;;;;;5024919;28;20170;-72
2022/10/25 13:07:48;;;;;;;3.00;0.80;;;19.50;99.90;;;;;;5042163;28;20195;-73
2022/10/25 13:10:21;;;;;;;2.22;0.60;;;19.50;99.90;;;;;;5033393;28;20206;-73
2022/10/25 13:13:23;;;;;;;0.63;0.40;;;19.50;99.90;;;;;;5036599;28;20174;-73
2022/10/25 13:15:51;;;;;;;1.73;0.57;;;19.50;99.90;;;;;;5043128;28;20198;-72
2022/10/25 13:18:43;;;;;;;1.50;0.68;;;19.40;99.90;;;;;;5016828;28;20180;-71
2022/10/25 13:21:35;;;;;;;2.53;0.60;;;19.50;99.90;;;;;;5027702;28;20205;-73